createdAt,value
2019-03-16T00:01:42.453Z,94.50
2019-03-16T00:04:12.821Z,94.19
2019-03-16T00:06:44.204Z,94.94
2019-03-16T00:09:14.382Z,95.31
2019-03-16T00:11:44.669Z,95.02
2019-03-16T00:14:15.173Z,95.28
2019-03-16T00:16:45.459Z,95.91
2019-03-16T00:19:15.752Z,94.58
2019-03-16T00:21:45.941Z,94.77
2019-03-16T00:24:16.103Z,94.25
2019-03-16T00:26:46.328Z,94.64
2019-03-16T00:29:16.502Z,94.52
2019-03-16T00:32:13.248Z,94.63
2019-03-16T00:34:38.036Z,94.22
2019-03-16T00:37:08.366Z,94.36
2019-03-16T00:39:38.766Z,93.81
2019-03-16T00:42:09.036Z,94.67
2019-03-16T00:44:40.409Z,94.06
2019-03-16T00:47:10.657Z,93.85
2019-03-16T00:49:40.902Z,92.83
2019-03-16T00:52:11.233Z,92.39
2019-03-16T00:54:41.657Z,93.15
2019-03-16T00:57:11.873Z,92.12
2019-03-16T00:59:42.043Z,92.80
2019-03-16T01:02:26.130Z,93.34
2019-03-16T01:04:45.096Z,92.04
2019-03-16T01:07:15.451Z,92.52
2019-03-16T01:09:45.639Z,92.08
2019-03-16T01:12:15.921Z,92.42
2019-03-16T01:14:46.097Z,91.79
2019-03-16T01:17:16.601Z,91.47
2019-03-16T01:19:46.852Z,91.05
2019-03-16T01:22:17.145Z,91.05
2019-03-16T01:24:47.299Z,90.40
2019-03-16T01:27:17.469Z,90.36
2019-03-16T01:29:47.820Z,90.31
2019-03-16T01:32:18.167Z,91.05
2019-03-16T01:34:48.446Z,90.19
2019-03-16T01:37:18.625Z,90.49
2019-03-16T01:39:48.866Z,90.48
2019-03-16T01:42:19.182Z,89.97
2019-03-16T01:44:49.517Z,90.17
2019-03-16T01:47:19.824Z,89.54
2019-03-16T01:49:49.998Z,88.98
2019-03-16T01:52:20.158Z,88.27
2019-03-16T01:54:50.433Z,89.05
2019-03-16T01:57:20.816Z,88.84
2019-03-16T01:59:51.090Z,88.87
2019-03-16T02:02:21.458Z,88.97
2019-03-16T02:04:51.753Z,88.98
2019-03-16T02:07:22.108Z,89.06
2019-03-16T02:09:52.445Z,88.37
2019-03-16T02:12:22.760Z,87.89
2019-03-16T02:14:53.142Z,89.06
2019-03-16T02:17:23.370Z,89.08
2019-03-16T02:19:53.739Z,88.96
2019-03-16T02:22:23.954Z,88.31
2019-03-16T02:24:54.327Z,88.16
2019-03-16T02:27:24.683Z,88.60
2019-03-16T02:29:54.921Z,88.66
2019-03-16T02:32:25.087Z,88.55
2019-03-16T02:34:55.482Z,89.43
2019-03-16T02:37:25.790Z,88.68
2019-03-16T02:39:55.976Z,88.88
2019-03-16T02:42:26.284Z,88.50
2019-03-16T02:44:56.666Z,88.52
2019-03-16T02:47:26.967Z,88.62
2019-03-16T02:49:57.232Z,88.68
2019-03-16T02:52:28.626Z,87.98
2019-03-16T02:54:58.868Z,88.03
2019-03-16T02:57:29.104Z,88.06
2019-03-16T02:59:59.367Z,87.90
2019-03-16T03:02:29.606Z,87.63
2019-03-16T03:04:59.824Z,87.32
2019-03-16T03:07:30.159Z,87.68
2019-03-16T03:10:00.615Z,87.07
2019-03-16T03:12:30.825Z,88.46
2019-03-16T03:15:01.179Z,87.55
2019-03-16T03:17:31.506Z,87.95
2019-03-16T03:20:01.861Z,87.75
2019-03-16T03:22:32.168Z,87.97
2019-03-16T03:25:02.400Z,88.44
2019-03-16T03:27:32.596Z,88.41
2019-03-16T03:30:02.894Z,88.16
2019-03-16T03:32:33.211Z,87.75
2019-03-16T03:35:03.461Z,87.37
2019-03-16T03:37:33.717Z,86.60
2019-03-16T03:40:04.127Z,86.83
2019-03-16T03:42:34.472Z,86.53
2019-03-16T03:45:05.057Z,85.84
2019-03-16T03:47:54.511Z,85.84
2019-03-16T03:50:24.694Z,85.81
2019-03-16T03:52:55.213Z,86.15
2019-03-16T03:55:25.890Z,86.35
2019-03-16T03:57:56.223Z,86.62
2019-03-16T04:00:26.597Z,87.14
2019-03-16T04:02:56.987Z,87.42
2019-03-16T04:05:27.226Z,86.97
2019-03-16T04:07:57.573Z,87.11
2019-03-16T04:10:27.709Z,87.83
2019-03-16T04:12:57.952Z,88.44
2019-03-16T04:15:28.176Z,88.35
2019-03-16T04:17:58.440Z,88.13
2019-03-16T04:20:28.753Z,87.73
2019-03-16T04:22:59.047Z,87.60
2019-03-16T04:25:32.224Z,87.56
2019-03-16T04:28:02.650Z,88.01
2019-03-16T04:30:32.892Z,88.24
2019-03-16T04:33:03.070Z,88.33
2019-03-16T04:35:33.252Z,88.45
2019-03-16T04:38:08.631Z,88.17
2019-03-16T04:40:38.881Z,88.15
2019-03-16T04:43:09.145Z,87.62
2019-03-16T04:45:39.386Z,88.26
2019-03-16T04:48:09.716Z,89.05
2019-03-16T04:50:39.946Z,89.11
2019-03-16T04:53:10.182Z,88.52
2019-03-16T04:55:40.423Z,87.90
2019-03-16T04:58:10.643Z,88.27
2019-03-16T05:00:40.941Z,88.83
2019-03-16T05:03:11.147Z,88.65
2019-03-16T05:05:41.471Z,89.19
2019-03-16T05:08:11.841Z,89.71
2019-03-16T05:10:42.026Z,89.24
2019-03-16T05:13:12.404Z,89.85
2019-03-16T05:15:42.601Z,89.83
2019-03-16T05:18:12.930Z,89.65
2019-03-16T05:20:43.165Z,90.05
2019-03-16T05:23:13.569Z,90.41
2019-03-16T05:25:43.832Z,90.26
2019-03-16T05:28:14.080Z,90.35
2019-03-16T05:30:44.313Z,90.94
2019-03-16T05:33:14.491Z,90.85
2019-03-16T05:35:44.725Z,90.64
2019-03-16T05:38:14.988Z,90.36
2019-03-16T05:40:45.247Z,90.08
2019-03-16T05:43:15.636Z,90.69
2019-03-16T05:45:45.872Z,90.94
2019-03-16T05:48:16.149Z,90.61
2019-03-16T05:50:46.403Z,90.70
2019-03-16T05:53:16.768Z,90.93
2019-03-16T05:55:47.015Z,90.80
2019-03-16T05:58:17.345Z,90.90
2019-03-16T06:00:47.653Z,91.06
2019-03-16T06:03:17.969Z,91.10
2019-03-16T06:05:48.201Z,91.67
2019-03-16T06:08:18.502Z,92.18
2019-03-16T06:10:48.817Z,92.70
2019-03-16T06:13:19.021Z,92.88
2019-03-16T06:15:49.327Z,92.66
2019-03-16T06:18:19.660Z,93.33
2019-03-16T06:20:49.934Z,93.54
2019-03-16T06:23:20.108Z,93.90
2019-03-16T06:25:50.370Z,94.45
2019-03-16T06:28:20.621Z,94.19
2019-03-16T06:30:50.836Z,94.29
2019-03-16T06:33:21.033Z,94.09
2019-03-16T06:35:51.418Z,94.45
2019-03-16T06:38:21.733Z,94.15
2019-03-16T06:40:52.648Z,94.07
2019-03-16T06:43:22.919Z,93.54
2019-03-16T06:45:53.206Z,93.42
2019-03-16T06:48:23.470Z,92.33
2019-03-16T06:50:53.804Z,91.38
2019-03-16T06:53:24.135Z,90.95
2019-03-16T06:55:54.446Z,91.75
2019-03-16T06:58:24.710Z,91.08
2019-03-16T07:00:55.048Z,90.84
2019-03-16T07:03:25.366Z,89.31
2019-03-16T07:05:55.665Z,89.48
2019-03-16T07:08:25.871Z,88.51
2019-03-16T07:10:56.137Z,87.80
2019-03-16T07:13:26.422Z,87.64
2019-03-16T07:15:56.840Z,87.27
2019-03-16T07:18:27.152Z,85.93
2019-03-16T07:20:57.390Z,86.43
2019-03-16T07:23:27.748Z,85.92
2019-03-16T07:25:58.144Z,86.14
2019-03-16T07:28:28.708Z,85.24
2019-03-16T07:30:58.981Z,85.85
2019-03-16T07:33:29.417Z,85.77
2019-03-16T07:35:59.699Z,84.94
2019-03-16T07:38:29.967Z,85.23
2019-03-16T07:41:00.304Z,85.17
2019-03-16T07:43:30.610Z,84.20
2019-03-16T07:46:01.015Z,84.31
2019-03-16T07:48:31.369Z,84.50
2019-03-16T07:51:01.945Z,84.11
2019-03-16T07:53:32.220Z,84.71
2019-03-16T07:56:02.885Z,85.51
2019-03-16T07:58:33.191Z,84.37
2019-03-16T08:01:03.769Z,84.03
2019-03-16T08:03:34.067Z,83.55
2019-03-16T08:06:04.678Z,82.59
2019-03-16T08:08:35.123Z,82.82
2019-03-16T08:11:05.555Z,83.05
2019-03-16T08:13:35.746Z,83.15
2019-03-16T08:16:07.106Z,83.47
2019-03-16T08:18:37.336Z,83.61
2019-03-16T08:21:07.863Z,84.21
2019-03-16T08:23:38.017Z,83.99
2019-03-16T08:26:08.440Z,84.70
2019-03-16T08:28:38.931Z,85.14
2019-03-16T08:31:09.283Z,84.89
2019-03-16T08:33:39.579Z,84.70
2019-03-16T08:36:09.740Z,84.69
2019-03-16T08:38:39.973Z,84.75
2019-03-16T08:41:10.274Z,83.69
2019-03-16T08:43:40.658Z,83.61
2019-03-16T08:46:11.019Z,83.26
2019-03-16T08:48:41.259Z,82.74
2019-03-16T08:51:11.541Z,82.49
2019-03-16T08:53:41.792Z,82.95
2019-03-16T08:56:12.151Z,83.25
2019-03-16T08:58:42.719Z,83.09
2019-03-16T09:01:13.004Z,83.26
2019-03-16T09:03:44.099Z,82.54
2019-03-16T09:06:14.418Z,82.42
2019-03-16T09:08:44.736Z,80.63
2019-03-16T09:11:15.063Z,80.13
2019-03-16T09:13:45.370Z,79.59
2019-03-16T09:16:15.672Z,77.87
2019-03-16T09:18:45.991Z,76.90
2019-03-16T09:21:16.412Z,77.28
2019-03-16T09:23:46.730Z,76.26
2019-03-16T09:26:16.934Z,76.89
2019-03-16T09:28:59.328Z,76.56
2019-03-16T09:31:19.145Z,77.24
2019-03-16T09:33:49.545Z,76.18
2019-03-16T09:36:19.753Z,76.57
2019-03-16T09:38:50.102Z,76.91
2019-03-16T09:41:20.368Z,76.68
2019-03-16T09:43:50.609Z,76.67
2019-03-16T09:46:20.951Z,76.64
2019-03-16T09:48:51.441Z,77.71
2019-03-16T09:51:21.583Z,77.73
2019-03-16T09:53:51.843Z,78.81
2019-03-16T09:56:22.167Z,78.00
2019-03-16T09:58:52.727Z,78.20
2019-03-16T10:01:23.206Z,78.73
2019-03-16T10:03:54.700Z,78.73
2019-03-16T10:06:25.082Z,79.43
2019-03-16T10:08:55.477Z,79.79
2019-03-16T10:11:25.825Z,79.69
2019-03-16T10:13:56.137Z,80.23
2019-03-16T10:16:26.550Z,80.67
2019-03-16T10:18:59.373Z,80.12
2019-03-16T10:21:29.943Z,81.37
2019-03-16T10:24:00.426Z,81.73
2019-03-16T10:26:30.832Z,81.89
2019-03-16T10:29:01.270Z,82.07
2019-03-16T10:31:31.604Z,82.84
2019-03-16T10:34:02.226Z,82.71
2019-03-16T10:36:32.544Z,82.40
2019-03-16T10:39:02.850Z,83.54
2019-03-16T10:41:33.207Z,82.58
2019-03-16T10:44:03.521Z,82.45
2019-03-16T10:46:33.986Z,81.95
2019-03-16T10:49:04.553Z,81.38
2019-03-16T10:51:34.962Z,80.08
2019-03-16T10:54:05.505Z,80.02
2019-03-16T10:56:35.950Z,79.64
2019-03-16T10:59:06.498Z,79.34
2019-03-16T11:01:36.848Z,78.94
2019-03-16T11:04:07.375Z,78.17
2019-03-16T11:06:37.742Z,75.81
2019-03-16T11:09:08.792Z,75.77
2019-03-16T11:11:39.283Z,75.71
2019-03-16T11:14:09.795Z,75.23
2019-03-16T11:16:40.256Z,75.91
2019-03-16T11:19:10.906Z,75.44
2019-03-16T11:21:41.417Z,75.65
2019-03-16T11:24:11.750Z,73.60
2019-03-16T11:26:42.195Z,72.14
2019-03-16T11:29:12.653Z,71.26
2019-03-16T11:31:43.039Z,68.36
2019-03-16T11:34:13.386Z,67.69
2019-03-16T11:36:43.962Z,68.85
2019-03-16T11:39:14.567Z,66.90
2019-03-16T11:41:45.155Z,65.62
2019-03-16T11:44:15.588Z,63.79
2019-03-16T11:46:46.104Z,62.73
2019-03-16T11:49:16.437Z,63.75
2019-03-16T11:51:46.865Z,62.58
2019-03-16T11:54:17.384Z,63.32
2019-03-16T11:56:47.753Z,62.89
2019-03-16T11:59:21.859Z,61.57
2019-03-16T12:01:50.827Z,61.35
2019-03-16T12:04:21.269Z,62.07
2019-03-16T12:06:51.757Z,62.79
2019-03-16T12:09:22.285Z,62.81
2019-03-16T12:11:53.797Z,61.71
2019-03-16T12:14:24.464Z,59.83
2019-03-16T12:16:54.897Z,60.85
2019-03-16T12:19:25.455Z,60.01
2019-03-16T12:21:55.852Z,59.35
2019-03-16T12:24:26.292Z,58.20
2019-03-16T12:26:56.897Z,59.01
2019-03-16T12:29:33.933Z,58.41
2019-03-16T12:31:59.920Z,59.25
2019-03-16T12:34:30.483Z,59.55
2019-03-16T12:37:00.940Z,59.26
2019-03-16T12:39:31.526Z,57.05
2019-03-16T12:42:02.140Z,56.67
2019-03-16T12:44:32.539Z,56.16
2019-03-16T12:47:02.951Z,56.87
2019-03-16T12:49:33.560Z,57.21
2019-03-16T12:52:03.920Z,58.48
2019-03-16T12:54:34.172Z,58.17
2019-03-16T12:57:04.555Z,58.11
2019-03-16T12:59:46.320Z,58.49
2019-03-16T13:02:09.280Z,57.89
2019-03-16T13:04:41.656Z,57.23
2019-03-16T13:07:12.096Z,57.08
2019-03-16T13:09:42.711Z,57.02
2019-03-16T13:12:14.231Z,57.04
2019-03-16T13:14:44.621Z,57.22
2019-03-16T13:17:15.051Z,56.63
2019-03-16T13:19:45.547Z,57.54
2019-03-16T13:22:15.994Z,57.70
2019-03-16T13:24:46.584Z,57.37
2019-03-16T13:27:17.131Z,57.57
2019-03-16T13:29:58.477Z,57.38
2019-03-16T13:32:20.210Z,57.35
2019-03-16T13:34:50.834Z,57.36
2019-03-16T13:37:21.283Z,58.21
2019-03-16T13:39:51.900Z,57.99
2019-03-16T13:42:22.479Z,58.77
2019-03-16T13:44:53.069Z,59.19
2019-03-16T13:47:23.544Z,59.60
2019-03-16T13:49:54.304Z,60.15
2019-03-16T13:52:25.102Z,60.35
2019-03-16T13:54:55.715Z,60.22
2019-03-16T13:57:26.707Z,59.84
2019-03-16T13:59:57.413Z,60.66
2019-03-16T14:02:27.912Z,60.46
2019-03-16T14:04:58.345Z,59.88
2019-03-16T14:07:29.849Z,60.47
2019-03-16T14:10:00.372Z,60.15
2019-03-16T14:12:30.986Z,60.42
2019-03-16T14:15:01.527Z,59.19
2019-03-16T14:17:33.592Z,59.19
2019-03-16T14:20:04.437Z,58.99
2019-03-16T14:22:37.928Z,59.03
2019-03-16T14:25:08.607Z,59.89
2019-03-16T14:27:39.152Z,59.64
2019-03-16T14:30:23.929Z,59.09
2019-03-16T14:32:44.292Z,59.17
2019-03-16T14:35:14.702Z,59.38
2019-03-16T14:37:45.329Z,58.92
2019-03-16T14:40:16.052Z,59.56
2019-03-16T14:42:46.460Z,60.60
2019-03-16T14:45:17.387Z,59.49
2019-03-16T14:47:47.794Z,59.45
2019-03-16T14:50:19.073Z,59.71
2019-03-16T14:52:49.586Z,59.77
2019-03-16T14:55:20.102Z,59.63
2019-03-16T14:57:50.572Z,59.27
2019-03-16T15:00:21.035Z,60.32
2019-03-16T15:02:51.384Z,60.75
2019-03-16T15:05:21.853Z,61.34
2019-03-16T15:07:52.299Z,60.85
2019-03-16T15:10:22.764Z,60.46
2019-03-16T15:12:53.186Z,60.62
2019-03-16T15:15:23.669Z,60.41
2019-03-16T15:17:54.188Z,60.73
2019-03-16T15:20:24.685Z,61.12
2019-03-16T15:22:55.178Z,62.06
2019-03-16T15:25:25.728Z,61.51
2019-03-16T15:27:56.407Z,61.35
2019-03-16T15:30:26.905Z,61.79
2019-03-16T15:33:00.157Z,62.35
2019-03-16T15:35:29.391Z,63.20
2019-03-16T15:37:59.919Z,63.28
2019-03-16T15:40:30.314Z,64.06
2019-03-16T15:43:00.712Z,64.46
2019-03-16T15:45:31.244Z,64.48
2019-03-16T15:48:01.839Z,64.11
2019-03-16T15:50:32.230Z,64.27
2019-03-16T15:53:02.601Z,64.16
2019-03-16T15:55:34.050Z,64.69
2019-03-16T15:58:08.407Z,64.52
2019-03-16T16:00:36.668Z,64.35
2019-03-16T16:03:10.651Z,64.59
2019-03-16T16:05:42.482Z,64.19
2019-03-16T16:08:13.362Z,63.97
2019-03-16T16:10:43.961Z,64.84
2019-03-16T16:13:14.442Z,64.85
2019-03-16T16:15:45.095Z,64.09
2019-03-16T16:18:15.650Z,64.84
2019-03-16T16:20:46.228Z,64.79
2019-03-16T16:23:16.830Z,65.16
2019-03-16T16:25:47.341Z,65.31
2019-03-16T16:28:17.662Z,64.42
2019-03-16T16:30:48.005Z,64.97
2019-03-16T16:33:19.542Z,64.95
2019-03-16T16:35:51.072Z,64.85
2019-03-16T16:38:22.981Z,64.47
2019-03-16T16:40:53.502Z,64.61
2019-03-16T16:43:23.916Z,64.27
2019-03-16T16:45:54.343Z,64.24
2019-03-16T16:48:24.976Z,64.32
2019-03-16T16:50:55.295Z,64.89
2019-03-16T16:53:25.598Z,65.03
2019-03-16T16:55:56.439Z,65.50
2019-03-16T16:58:26.710Z,65.67
2019-03-16T17:00:57.118Z,65.93
2019-03-16T17:03:30.505Z,66.00
2019-03-16T17:06:00.880Z,66.39
2019-03-16T17:08:31.375Z,67.03
2019-03-16T17:11:01.578Z,67.52
2019-03-16T17:13:34.435Z,68.36
2019-03-16T17:16:04.961Z,68.24
2019-03-16T17:18:35.342Z,68.41
2019-03-16T17:21:05.789Z,69.19
2019-03-16T17:23:36.117Z,72.74
2019-03-16T17:26:06.595Z,69.29
2019-03-16T17:28:36.840Z,70.24
2019-03-16T17:31:12.092Z,70.88
2019-03-16T17:33:42.717Z,70.85
2019-03-16T17:36:13.117Z,71.87
2019-03-16T17:38:43.592Z,71.72
2019-03-16T17:41:14.059Z,70.87
2019-03-16T17:43:44.494Z,70.76
2019-03-16T17:46:14.920Z,71.17
2019-03-16T17:48:45.326Z,71.68
2019-03-16T17:51:15.846Z,72.29
2019-03-16T17:53:47.091Z,72.29
2019-03-16T17:56:17.398Z,72.48
2019-03-16T17:58:47.801Z,72.82
2019-03-16T18:01:18.201Z,72.21
2019-03-16T18:03:48.653Z,72.36
2019-03-16T18:06:18.941Z,72.15
2019-03-16T18:08:54.272Z,72.19
2019-03-16T18:11:24.531Z,72.68
2019-03-16T18:13:54.875Z,73.73
2019-03-16T18:16:25.322Z,73.44
2019-03-16T18:18:55.645Z,74.07
2019-03-16T18:21:26.195Z,73.48
2019-03-16T18:23:56.619Z,73.95
2019-03-16T18:26:27.125Z,74.24
2019-03-16T18:28:57.603Z,73.90
2019-03-16T18:31:28.913Z,73.54
2019-03-16T18:33:59.244Z,74.44
2019-03-16T18:36:43.857Z,74.22
2019-03-16T18:39:14.449Z,74.62
2019-03-16T18:41:53.855Z,76.06
2019-03-16T18:44:24.160Z,77.44
2019-03-16T18:46:54.405Z,78.12
2019-03-16T18:49:27.797Z,79.41
2019-03-16T18:52:00.149Z,79.18
2019-03-16T18:54:30.727Z,80.27
2019-03-16T18:57:01.134Z,79.65
2019-03-16T18:59:31.537Z,80.64
2019-03-16T19:02:01.917Z,81.87
2019-03-16T19:04:32.213Z,77.80
2019-03-16T19:07:02.628Z,79.90
2019-03-16T19:09:33.097Z,80.68
2019-03-16T19:12:03.589Z,81.14
2019-03-16T19:14:34.052Z,81.52
2019-03-16T19:17:23.536Z,82.63
2019-03-16T19:19:54.242Z,83.44
2019-03-16T19:22:24.708Z,83.69
2019-03-16T19:24:55.050Z,84.50
2019-03-16T19:27:25.417Z,84.32
2019-03-16T19:29:56.186Z,84.55
2019-03-16T19:32:33.691Z,85.01
2019-03-16T19:34:58.650Z,84.83
2019-03-16T19:37:29.119Z,85.17
2019-03-16T19:39:59.495Z,85.02
2019-03-16T19:42:31.035Z,84.85
2019-03-16T19:45:01.404Z,84.85
2019-03-16T19:47:31.918Z,84.05
2019-03-16T19:50:02.435Z,83.40
2019-03-16T19:52:32.858Z,82.74
2019-03-16T19:55:03.301Z,82.34
2019-03-16T19:57:34.713Z,82.02
2019-03-16T20:00:06.421Z,81.83
2019-03-16T20:02:46.002Z,81.18
2019-03-16T20:05:09.524Z,80.65
2019-03-16T20:07:39.985Z,80.90
2019-03-16T20:10:13.006Z,80.74
2019-03-16T20:12:43.433Z,80.33
2019-03-16T20:15:14.107Z,78.83
2019-03-16T20:17:44.591Z,76.50
2019-03-16T20:20:15.131Z,76.79
2019-03-16T20:22:45.541Z,76.75
2019-03-16T20:25:16.085Z,76.99
2019-03-16T20:27:46.517Z,77.48
2019-03-16T20:30:26.348Z,76.78
2019-03-16T20:33:02.647Z,76.98
2019-03-16T20:35:25.993Z,76.85
2019-03-16T20:37:56.320Z,76.08
2019-03-16T20:40:26.763Z,76.85
2019-03-16T20:42:57.194Z,76.07
2019-03-16T20:45:27.930Z,74.87
2019-03-16T20:47:58.852Z,73.63
2019-03-16T20:50:29.417Z,72.72
2019-03-16T20:52:59.572Z,72.46
2019-03-16T20:55:29.769Z,73.08
2019-03-16T20:58:00.168Z,73.20
2019-03-16T21:03:31.817Z,72.70
2019-03-16T21:06:02.334Z,72.55
2019-03-16T21:08:33.437Z,72.81
2019-03-16T21:11:08.283Z,73.58
2019-03-16T21:13:38.604Z,71.77
2019-03-16T21:16:09.145Z,71.68
2019-03-16T21:18:39.648Z,71.18
2019-03-16T21:21:10.105Z,71.04
2019-03-16T21:23:40.588Z,70.66
2019-03-16T21:26:10.983Z,68.56
2019-03-16T21:28:41.366Z,68.13
2019-03-16T21:31:11.835Z,68.21
2019-03-16T21:33:42.247Z,68.75
2019-03-16T21:36:12.786Z,68.15
2019-03-16T21:38:46.816Z,66.76
2019-03-16T21:41:17.351Z,67.25
2019-03-16T21:43:47.593Z,67.21
2019-03-16T21:46:21.403Z,66.92
2019-03-16T21:48:51.748Z,64.08
2019-03-16T21:51:22.242Z,63.38
2019-03-16T21:53:52.715Z,61.94
2019-03-16T21:56:32.210Z,61.88
2019-03-16T21:59:02.492Z,61.39
2019-03-16T22:01:33.110Z,61.34
2019-03-16T22:04:03.396Z,61.77
2019-03-16T22:06:33.787Z,61.79
2019-03-16T22:09:05.175Z,61.39
2019-03-16T22:11:35.650Z,61.59
2019-03-16T22:14:06.540Z,60.86
2019-03-16T22:16:37.053Z,61.00
2019-03-16T22:19:26.882Z,62.24
2019-03-16T22:21:57.468Z,61.37
2019-03-16T22:24:27.711Z,61.43
2019-03-16T22:26:58.093Z,61.90
2019-03-16T22:29:28.378Z,62.39
2019-03-16T22:32:00.712Z,63.02
2019-03-16T22:34:31.047Z,63.17
2019-03-16T22:37:01.393Z,63.93
2019-03-16T22:39:31.596Z,64.85
2019-03-16T22:42:02.025Z,65.47
2019-03-16T22:44:32.489Z,65.51
2019-03-16T22:47:02.892Z,65.23
2019-03-16T22:49:40.284Z,64.83
2019-03-16T22:52:10.747Z,64.31
2019-03-16T22:54:41.141Z,63.32
2019-03-16T22:57:11.571Z,62.83
2019-03-16T22:59:43.084Z,62.31
2019-03-16T23:02:13.976Z,62.36
2019-03-16T23:04:44.300Z,62.12
2019-03-16T23:07:14.646Z,61.39
2019-03-16T23:09:44.951Z,61.55
2019-03-16T23:12:15.286Z,61.36
2019-03-16T23:14:45.684Z,60.48
2019-03-16T23:17:15.972Z,61.44
2019-03-16T23:19:46.543Z,60.48
2019-03-16T23:22:17.165Z,59.85
2019-03-16T23:24:47.432Z,59.21
2019-03-16T23:27:17.943Z,58.86
2019-03-16T23:29:48.226Z,58.54
2019-03-16T23:32:18.674Z,58.60
2019-03-16T23:34:48.945Z,58.09
2019-03-16T23:37:19.447Z,56.94
2019-03-16T23:39:49.672Z,56.80
2019-03-16T23:42:19.997Z,56.85
2019-03-16T23:44:50.267Z,56.71
2019-03-16T23:47:20.744Z,57.17
2019-03-16T23:49:50.950Z,56.31
2019-03-16T23:52:21.472Z,55.90
2019-03-16T23:54:51.852Z,55.89
2019-03-16T23:57:22.435Z,55.09
2019-03-16T23:59:52.729Z,54.08
